createdAt,value
2023-04-18T00:01:06.457Z,8.93
2023-04-18T00:03:29.859Z,8.73
2023-04-18T00:05:51.881Z,8.57
2023-04-18T00:08:14.201Z,8.37
2023-04-18T00:10:35.623Z,8.11
2023-04-18T00:12:58.349Z,8.10
2023-04-18T00:15:19.806Z,7.81
2023-04-18T00:17:41.284Z,7.85
2023-04-18T00:20:06.936Z,8.10
2023-04-18T00:22:28.413Z,8.31
2023-04-18T00:24:50.639Z,8.43
2023-04-18T00:27:12.091Z,8.53
2023-04-18T00:29:33.544Z,8.70
2023-04-18T00:31:55.032Z,8.72
2023-04-18T00:34:16.557Z,8.90
2023-04-18T00:36:38.068Z,8.88
2023-04-18T00:38:59.530Z,8.87
2023-04-18T00:41:22.261Z,8.88
2023-04-18T00:43:43.717Z,8.75
2023-04-18T00:46:05.479Z,8.84
2023-04-18T00:48:27.471Z,8.93
2023-04-18T00:50:49.008Z,8.90
2023-04-18T00:53:11.170Z,8.88
2023-04-18T00:55:32.961Z,8.68
2023-04-18T00:57:54.497Z,8.64
2023-04-18T01:00:16.196Z,8.78
2023-04-18T01:02:39.673Z,8.80
2023-04-18T01:05:02.343Z,8.77
2023-04-18T01:07:24.884Z,8.75
2023-04-18T01:09:47.227Z,8.80
2023-04-18T01:12:08.667Z,8.72
2023-04-18T01:14:30.164Z,8.51
2023-04-18T01:16:51.648Z,8.57
2023-04-18T01:19:17.475Z,8.62
2023-04-18T01:21:43.731Z,8.52
2023-04-18T01:24:18.044Z,8.49
2023-04-18T01:26:40.129Z,8.47
2023-04-18T01:29:01.658Z,8.50
2023-04-18T01:31:23.271Z,8.43
2023-04-18T01:33:44.774Z,8.20
2023-04-18T01:36:06.365Z,8.11
2023-04-18T01:38:27.911Z,7.99
2023-04-18T01:40:49.489Z,8.04
2023-04-18T01:43:10.942Z,8.10
2023-04-18T01:45:32.535Z,8.28
2023-04-18T01:47:53.988Z,8.17
2023-04-18T01:50:15.565Z,7.94
2023-04-18T01:52:37.006Z,8.08
2023-04-18T01:54:58.687Z,8.28
2023-04-18T01:57:20.118Z,8.01
2023-04-18T01:59:41.557Z,8.04
2023-04-18T02:02:03.071Z,7.94
2023-04-18T02:04:24.720Z,7.77
2023-04-18T02:06:46.171Z,7.86
2023-04-18T02:09:07.634Z,8.02
2023-04-18T02:11:29.986Z,8.12
2023-04-18T02:13:52.255Z,8.14
2023-04-18T02:16:14.001Z,8.24
2023-04-18T02:18:35.503Z,8.24
2023-04-18T02:20:56.981Z,8.23
2023-04-18T02:23:19.165Z,7.97
2023-04-18T02:25:40.708Z,7.87
2023-04-18T02:28:02.368Z,8.08
2023-04-18T02:30:25.449Z,8.01
2023-04-18T02:32:47.140Z,7.79
2023-04-18T02:35:08.838Z,7.74
2023-04-18T02:37:30.337Z,7.56
2023-04-18T02:39:51.795Z,7.63
2023-04-18T02:42:13.244Z,7.78
2023-04-18T02:44:34.720Z,7.70
2023-04-18T02:46:56.152Z,7.68
2023-04-18T02:49:17.594Z,7.65
2023-04-18T02:51:39.066Z,7.56
2023-04-18T02:54:00.594Z,7.51
2023-04-18T02:56:22.460Z,7.53
2023-04-18T02:58:43.922Z,7.53
2023-04-18T03:01:05.609Z,7.59
2023-04-18T03:03:27.109Z,7.64
2023-04-18T03:05:48.709Z,7.74
2023-04-18T03:08:10.165Z,7.53
2023-04-18T03:10:31.650Z,7.79
2023-04-18T03:12:53.130Z,7.75
2023-04-18T03:15:14.609Z,7.81
2023-04-18T03:17:36.689Z,7.68
2023-04-18T03:19:58.205Z,7.68
2023-04-18T03:22:19.873Z,7.63
2023-04-18T03:24:41.417Z,7.66
2023-04-18T03:27:02.973Z,7.73
2023-04-18T03:29:24.488Z,7.91
2023-04-18T03:31:46.096Z,8.02
2023-04-18T03:34:07.611Z,8.03
2023-04-18T03:36:29.157Z,7.79
2023-04-18T03:38:50.795Z,7.84
2023-04-18T03:41:12.256Z,7.88
2023-04-18T03:43:33.721Z,7.77
2023-04-18T03:45:55.246Z,7.85
2023-04-18T03:48:16.755Z,7.90
2023-04-18T03:50:38.189Z,7.89
2023-04-18T03:52:59.643Z,7.89
2023-04-18T03:55:21.846Z,8.10
2023-04-18T03:57:43.309Z,8.05
2023-04-18T04:00:07.917Z,8.11
2023-04-18T04:02:29.497Z,8.04
2023-04-18T04:04:51.479Z,8.05
2023-04-18T04:07:13.097Z,8.18
2023-04-18T04:09:34.524Z,8.23
2023-04-18T04:11:55.958Z,8.19
2023-04-18T04:14:17.454Z,8.03
2023-04-18T04:16:39.039Z,8.04
2023-04-18T04:19:00.482Z,8.09
2023-04-18T04:21:21.908Z,8.41
2023-04-18T04:23:43.578Z,8.34
2023-04-18T04:26:05.129Z,8.14
2023-04-18T04:28:26.647Z,8.26
2023-04-18T04:30:51.405Z,8.29
2023-04-18T04:33:12.879Z,8.28
2023-04-18T04:35:36.705Z,8.22
2023-04-18T04:37:58.943Z,8.13
2023-04-18T04:40:20.533Z,8.33
2023-04-18T04:42:43.407Z,8.30
2023-04-18T04:45:05.729Z,8.38
2023-04-18T04:47:27.294Z,8.51
2023-04-18T04:49:48.770Z,8.58
2023-04-18T04:52:10.225Z,8.56
2023-04-18T04:54:31.652Z,8.54
2023-04-18T04:56:53.130Z,8.51
2023-04-18T04:59:14.886Z,8.58
2023-04-18T05:01:36.410Z,8.66
2023-04-18T05:03:58.050Z,8.54
2023-04-18T05:06:20.941Z,8.57
2023-04-18T05:08:42.498Z,8.51
2023-04-18T05:11:03.951Z,8.51
2023-04-18T05:13:25.648Z,8.70
2023-04-18T05:15:47.342Z,8.78
2023-04-18T05:18:09.000Z,8.74
2023-04-18T05:20:30.530Z,8.83
2023-04-18T05:22:52.056Z,8.88
2023-04-18T05:25:13.538Z,9.01
2023-04-18T05:27:35.019Z,9.11
2023-04-18T05:29:56.483Z,9.07
2023-04-18T05:32:17.987Z,9.09
2023-04-18T05:34:39.449Z,9.19
2023-04-18T05:37:01.024Z,9.31
2023-04-18T05:39:22.468Z,9.24
2023-04-18T05:41:43.928Z,9.16
2023-04-18T05:44:06.023Z,9.18
2023-04-18T05:46:27.577Z,9.01
2023-04-18T05:48:49.032Z,9.05
2023-04-18T05:51:11.604Z,9.08
2023-04-18T05:53:33.243Z,9.00
2023-04-18T05:55:55.165Z,8.98
2023-04-18T05:58:16.626Z,8.95
2023-04-18T06:00:38.085Z,8.79
2023-04-18T06:02:59.736Z,8.88
2023-04-18T06:05:21.583Z,8.91
2023-04-18T06:07:43.222Z,9.07
2023-04-18T06:10:09.245Z,9.29
2023-04-18T06:12:30.704Z,9.52
2023-04-18T06:14:52.182Z,9.59
2023-04-18T06:17:14.000Z,9.58
2023-04-18T06:19:35.522Z,9.67
2023-04-18T06:21:56.962Z,9.83
2023-04-18T06:24:18.441Z,9.95
2023-04-18T06:26:39.977Z,9.94
2023-04-18T06:29:01.575Z,10.12
2023-04-18T06:31:23.152Z,10.17
2023-04-18T06:33:44.612Z,10.16
2023-04-18T06:36:07.220Z,10.08
2023-04-18T06:38:28.831Z,10.27
2023-04-18T06:40:50.261Z,10.20
2023-04-18T06:43:11.761Z,10.34
2023-04-18T06:45:33.350Z,10.49
2023-04-18T06:47:54.910Z,10.31
2023-04-18T06:50:16.490Z,10.36
2023-04-18T06:52:40.704Z,10.53
2023-04-18T06:55:02.230Z,10.61
2023-04-18T06:57:23.741Z,10.75
2023-04-18T06:59:45.168Z,10.80
2023-04-18T07:02:08.277Z,10.82
2023-04-18T07:04:29.908Z,11.08
2023-04-18T07:06:51.810Z,11.08
2023-04-18T07:09:13.291Z,11.13
2023-04-18T07:11:34.815Z,11.13
2023-04-18T07:13:56.264Z,11.36
2023-04-18T07:16:17.787Z,11.42
2023-04-18T07:18:39.260Z,11.39
2023-04-18T07:21:00.832Z,11.40
2023-04-18T07:23:22.276Z,11.60
2023-04-18T07:25:43.790Z,11.96
2023-04-18T07:28:05.449Z,11.91
2023-04-18T07:30:26.978Z,12.09
2023-04-18T07:32:48.738Z,12.61
2023-04-18T07:35:10.575Z,13.02
2023-04-18T07:37:32.634Z,13.41
2023-04-18T07:39:54.067Z,13.40
2023-04-18T07:42:15.522Z,13.73
2023-04-18T07:44:37.003Z,14.18
2023-04-18T07:46:58.538Z,14.51
2023-04-18T07:49:19.985Z,15.01
2023-04-18T07:51:41.437Z,15.05
2023-04-18T07:54:03.011Z,15.30
2023-04-18T07:56:24.968Z,15.35
2023-04-18T07:58:46.407Z,15.46
2023-04-18T08:01:08.986Z,15.60
2023-04-18T08:03:30.636Z,15.76
2023-04-18T08:05:52.401Z,15.77
2023-04-18T08:08:13.984Z,16.08
2023-04-18T08:10:35.944Z,16.18
2023-04-18T08:12:57.452Z,15.90
2023-04-18T08:15:18.978Z,15.86
2023-04-18T08:17:42.658Z,16.14
2023-04-18T08:20:07.237Z,16.14
2023-04-18T08:22:28.842Z,16.21
2023-04-18T08:25:03.842Z,16.43
2023-04-18T08:27:26.848Z,16.28
2023-04-18T08:29:48.335Z,16.10
2023-04-18T08:32:09.799Z,15.84
2023-04-18T08:34:33.829Z,15.45
2023-04-18T08:36:55.542Z,15.09
2023-04-18T08:39:17.355Z,15.36
2023-04-18T08:41:42.786Z,15.33
2023-04-18T08:44:04.391Z,15.36
2023-04-18T08:46:26.416Z,15.41
2023-04-18T08:48:50.004Z,15.14
2023-04-18T08:51:11.505Z,15.14
2023-04-18T08:53:33.966Z,14.77
2023-04-18T08:55:57.355Z,14.90
2023-04-18T08:58:27.407Z,14.76
2023-04-18T09:00:53.616Z,14.91
2023-04-18T09:03:15.620Z,14.69
2023-04-18T09:05:37.203Z,14.72
2023-04-18T09:07:58.658Z,14.62
2023-04-18T09:10:32.582Z,14.57
2023-04-18T09:12:54.459Z,14.69
2023-04-18T09:15:17.471Z,14.76
2023-04-18T09:17:46.091Z,14.83
2023-04-18T09:20:10.726Z,14.89
2023-04-18T09:22:47.906Z,14.68
2023-04-18T09:25:09.642Z,14.56
2023-04-18T09:27:34.694Z,14.40
2023-04-18T09:29:58.032Z,14.34
2023-04-18T09:32:29.137Z,14.76
2023-04-18T09:34:59.749Z,15.05
2023-04-18T09:37:22.096Z,15.07
2023-04-18T09:39:44.706Z,14.91
2023-04-18T09:42:06.378Z,15.21
2023-04-18T09:44:28.160Z,15.48
2023-04-18T09:46:49.760Z,15.44
2023-04-18T09:49:11.370Z,15.65
2023-04-18T09:51:34.111Z,15.76
2023-04-18T09:53:55.824Z,15.84
2023-04-18T09:56:25.897Z,15.33
2023-04-18T09:58:51.212Z,15.71
2023-04-18T10:01:13.483Z,15.62
2023-04-18T10:03:47.231Z,15.26
2023-04-18T10:06:11.283Z,15.08
2023-04-18T10:08:33.111Z,15.09
2023-04-18T10:10:55.996Z,15.16
2023-04-18T10:13:19.058Z,15.05
2023-04-18T10:15:42.394Z,14.92
2023-04-18T10:18:16.553Z,14.71
2023-04-18T10:20:41.264Z,14.75
2023-04-18T10:23:31.578Z,14.81
2023-04-18T10:25:53.101Z,15.18
2023-04-18T10:28:15.031Z,15.60
2023-04-18T10:30:42.584Z,15.86
2023-04-18T10:33:30.324Z,15.74
2023-04-18T10:36:20.630Z,15.83
2023-04-18T10:38:46.965Z,16.38
2023-04-18T10:41:24.968Z,15.95
2023-04-18T10:44:18.779Z,15.44
2023-04-18T10:46:41.495Z,15.20
2023-04-18T10:49:23.388Z,15.92
2023-04-18T10:51:49.469Z,15.83
2023-04-18T10:54:13.751Z,15.84
2023-04-18T10:56:36.002Z,15.91
2023-04-18T10:59:02.068Z,15.89
2023-04-18T11:01:31.206Z,15.76
2023-04-18T11:03:57.204Z,15.63
2023-04-18T11:06:18.838Z,16.04
2023-04-18T11:08:40.677Z,16.31
2023-04-18T11:11:04.204Z,15.71
2023-04-18T11:13:25.761Z,15.51
2023-04-18T11:15:47.236Z,15.24
2023-04-18T11:18:09.341Z,15.96
2023-04-18T11:20:38.865Z,16.22
2023-04-18T11:23:00.826Z,16.72
2023-04-18T11:25:29.060Z,16.51
2023-04-18T11:27:55.656Z,16.56
2023-04-18T11:30:17.507Z,15.77
2023-04-18T11:32:39.058Z,15.86
2023-04-18T11:35:00.613Z,15.58
2023-04-18T11:37:22.378Z,15.69
2023-04-18T11:39:44.657Z,15.95
2023-04-18T11:42:06.181Z,16.21
2023-04-18T11:44:27.630Z,16.39
2023-04-18T11:46:50.279Z,16.38
2023-04-18T11:49:30.342Z,16.24
2023-04-18T11:51:51.822Z,16.05
2023-04-18T11:54:38.975Z,15.56
2023-04-18T11:57:00.508Z,15.39
2023-04-18T11:59:22.595Z,15.41
2023-04-18T12:01:44.028Z,15.31
2023-04-18T12:04:08.009Z,15.19
2023-04-18T12:06:49.344Z,14.93
2023-04-18T12:09:14.234Z,14.86
2023-04-18T12:11:35.737Z,14.81
2023-04-18T12:13:57.219Z,14.42
2023-04-18T12:16:18.688Z,14.25
2023-04-18T12:18:41.930Z,14.02
2023-04-18T12:21:05.827Z,13.89
2023-04-18T12:23:40.498Z,13.81
2023-04-18T12:26:18.248Z,13.67
2023-04-18T12:28:39.913Z,13.55
2023-04-18T12:31:02.186Z,13.53
2023-04-18T12:33:23.894Z,13.48
2023-04-18T12:35:46.406Z,13.52
2023-04-18T12:38:08.730Z,13.99
2023-04-18T12:40:30.332Z,13.86
2023-04-18T12:42:53.001Z,14.21
2023-04-18T12:45:15.935Z,14.80
2023-04-18T12:47:42.170Z,14.86
2023-04-18T12:50:03.949Z,15.02
2023-04-18T12:52:25.374Z,15.15
2023-04-18T12:54:46.823Z,15.37
2023-04-18T12:57:08.284Z,15.36
2023-04-18T12:59:30.250Z,15.37
2023-04-18T13:01:51.841Z,15.17
2023-04-18T13:04:13.591Z,15.19
2023-04-18T13:06:35.638Z,15.30
2023-04-18T13:08:57.122Z,15.25
2023-04-18T13:11:18.566Z,15.39
2023-04-18T13:13:40.059Z,14.92
2023-04-18T13:16:01.585Z,14.86
2023-04-18T13:18:23.168Z,14.70
2023-04-18T13:20:44.578Z,14.63
2023-04-18T13:23:06.019Z,14.61
2023-04-18T13:25:27.504Z,14.63
2023-04-18T13:27:50.366Z,14.49
2023-04-18T13:30:12.206Z,14.32
2023-04-18T13:32:34.514Z,14.44
2023-04-18T13:34:56.394Z,14.34
2023-04-18T13:37:17.921Z,14.29
2023-04-18T13:39:39.474Z,14.22
2023-04-18T13:42:03.312Z,14.03
2023-04-18T13:44:25.237Z,13.97
2023-04-18T13:46:46.696Z,13.84
2023-04-18T13:49:08.142Z,13.88
2023-04-18T13:51:29.616Z,13.96
2023-04-18T13:53:51.734Z,13.75
2023-04-18T13:56:13.239Z,13.70
2023-04-18T13:58:34.738Z,13.61
2023-04-18T14:00:56.544Z,13.53
2023-04-18T14:03:18.174Z,13.33
2023-04-18T14:05:39.747Z,13.35
2023-04-18T14:08:03.907Z,13.30
2023-04-18T14:10:25.507Z,13.24
2023-04-18T14:12:46.973Z,13.52
2023-04-18T14:15:09.368Z,13.33
2023-04-18T14:17:31.124Z,13.35
2023-04-18T14:19:52.641Z,13.46
2023-04-18T14:22:14.082Z,13.55
2023-04-18T14:24:38.362Z,13.56
2023-04-18T14:26:59.807Z,13.52
2023-04-18T14:29:21.279Z,13.34
2023-04-18T14:31:42.865Z,13.16
2023-04-18T14:34:04.488Z,13.27
2023-04-18T14:36:27.225Z,13.46
2023-04-18T14:38:49.325Z,13.37
2023-04-18T14:41:11.184Z,13.54
2023-04-18T14:43:32.642Z,13.70
2023-04-18T14:45:54.115Z,13.77
2023-04-18T14:48:16.125Z,14.04
2023-04-18T14:50:38.656Z,14.53
2023-04-18T14:53:00.210Z,14.84
2023-04-18T14:55:21.662Z,15.02
2023-04-18T14:57:43.103Z,14.91
2023-04-18T15:00:08.258Z,14.98
2023-04-18T15:02:29.931Z,14.98
2023-04-18T15:04:53.244Z,14.66
2023-04-18T15:07:15.493Z,14.40
2023-04-18T15:09:37.665Z,14.08
2023-04-18T15:12:00.163Z,13.82
2023-04-18T15:14:21.653Z,13.65
2023-04-18T15:16:43.169Z,13.40
2023-04-18T15:19:04.655Z,13.34
2023-04-18T15:21:26.269Z,13.21
2023-04-18T15:23:47.699Z,13.23
2023-04-18T15:26:09.274Z,13.23
2023-04-18T15:28:31.122Z,13.12
2023-04-18T15:30:52.661Z,12.97
2023-04-18T15:33:14.295Z,12.96
2023-04-18T15:35:36.141Z,12.91
2023-04-18T15:37:57.713Z,12.92
2023-04-18T15:40:19.513Z,13.06
2023-04-18T15:42:41.086Z,13.20
2023-04-18T15:45:04.426Z,13.32
2023-04-18T15:47:26.110Z,13.36
2023-04-18T15:49:47.630Z,13.28
2023-04-18T15:52:09.165Z,13.23
2023-04-18T15:54:30.820Z,13.33
2023-04-18T15:56:52.302Z,13.31
2023-04-18T15:59:13.905Z,13.57
2023-04-18T16:01:35.811Z,13.52
2023-04-18T16:03:57.433Z,13.52
2023-04-18T16:06:19.090Z,13.49
2023-04-18T16:08:40.850Z,13.47
2023-04-18T16:11:02.467Z,13.63
2023-04-18T16:13:23.953Z,13.38
2023-04-18T16:15:46.037Z,13.26
2023-04-18T16:18:08.350Z,13.30
2023-04-18T16:20:29.947Z,13.29
2023-04-18T16:22:51.375Z,13.17
2023-04-18T16:25:12.901Z,13.00
2023-04-18T16:27:34.396Z,12.91
2023-04-18T16:29:55.892Z,12.65
2023-04-18T16:32:17.345Z,12.60
2023-04-18T16:34:38.772Z,12.60
2023-04-18T16:37:00.896Z,12.69
2023-04-18T16:39:22.418Z,12.87
2023-04-18T16:41:44.129Z,12.72
2023-04-18T16:44:05.585Z,12.64
2023-04-18T16:46:31.319Z,12.69
2023-04-18T16:48:52.821Z,12.36
2023-04-18T16:51:14.490Z,12.26
2023-04-18T16:53:36.123Z,12.10
2023-04-18T16:55:57.681Z,12.13
2023-04-18T16:58:20.189Z,12.03
2023-04-18T17:00:42.141Z,12.07
2023-04-18T17:03:03.844Z,11.93
2023-04-18T17:05:26.030Z,11.93
2023-04-18T17:07:49.758Z,11.91
2023-04-18T17:10:11.670Z,11.88
2023-04-18T17:12:33.161Z,11.80
2023-04-18T17:14:54.605Z,11.77
2023-04-18T17:17:16.060Z,11.78
2023-04-18T17:19:37.559Z,11.57
2023-04-18T17:21:58.985Z,11.54
2023-04-18T17:24:22.482Z,11.44
2023-04-18T17:26:44.218Z,11.35
2023-04-18T17:29:05.701Z,11.42
2023-04-18T17:31:27.347Z,11.39
2023-04-18T17:33:51.782Z,11.43
2023-04-18T17:36:13.416Z,11.30
2023-04-18T17:38:34.992Z,11.29
2023-04-18T17:41:00.822Z,11.33
2023-04-18T17:43:22.399Z,11.39
2023-04-18T17:45:44.162Z,11.42
2023-04-18T17:48:06.105Z,11.41
2023-04-18T17:50:27.625Z,11.52
2023-04-18T17:52:49.714Z,11.40
2023-04-18T17:55:11.344Z,11.33
2023-04-18T17:57:33.641Z,11.30
2023-04-18T17:59:55.131Z,11.35
2023-04-18T18:02:16.714Z,11.24
2023-04-18T18:04:41.554Z,11.45
2023-04-18T18:07:03.048Z,11.62
2023-04-18T18:09:24.613Z,11.47
2023-04-18T18:11:46.051Z,11.46
2023-04-18T18:14:07.646Z,11.64
2023-04-18T18:16:29.085Z,11.66
2023-04-18T18:18:51.107Z,11.67
2023-04-18T18:21:12.598Z,11.63
2023-04-18T18:23:34.069Z,11.73
2023-04-18T18:25:55.782Z,11.72
2023-04-18T18:28:17.909Z,11.75
2023-04-18T18:30:39.412Z,11.77
2023-04-18T18:33:01.752Z,11.71
2023-04-18T18:35:23.240Z,11.71
2023-04-18T18:37:44.699Z,11.83
2023-04-18T18:40:07.430Z,11.92
2023-04-18T18:42:28.917Z,11.94
2023-04-18T18:44:50.574Z,11.78
2023-04-18T18:47:12.023Z,11.89
2023-04-18T18:49:33.525Z,11.86
2023-04-18T18:51:55.027Z,11.91
2023-04-18T18:54:16.480Z,11.79
2023-04-18T18:56:39.796Z,11.70
2023-04-18T18:59:01.240Z,11.69
2023-04-18T19:01:23.154Z,11.61
2023-04-18T19:03:44.856Z,11.25
2023-04-18T19:06:07.355Z,11.07
2023-04-18T19:08:28.813Z,11.07
2023-04-18T19:10:50.707Z,10.99
2023-04-18T19:13:12.150Z,10.78
2023-04-18T19:15:33.588Z,11.04
2023-04-18T19:17:55.965Z,11.11
2023-04-18T19:20:17.891Z,11.25
2023-04-18T19:22:39.389Z,11.27
2023-04-18T19:25:00.944Z,11.42
2023-04-18T19:27:22.992Z,11.37
2023-04-18T19:29:44.668Z,11.38
2023-04-18T19:32:06.479Z,11.40
2023-04-18T19:34:27.967Z,11.37
2023-04-18T19:36:49.406Z,11.34
2023-04-18T19:39:11.032Z,11.26
2023-04-18T19:41:32.456Z,11.50
2023-04-18T19:43:53.935Z,11.64
2023-04-18T19:46:15.470Z,11.43
2023-04-18T19:48:37.000Z,11.30
2023-04-18T19:50:58.429Z,11.06
2023-04-18T19:53:20.566Z,10.93
2023-04-18T19:55:44.340Z,10.85
2023-04-18T19:58:05.884Z,11.07
2023-04-18T20:00:28.267Z,11.10
2023-04-18T20:02:50.030Z,10.94
2023-04-18T20:05:12.920Z,10.80
2023-04-18T20:07:35.515Z,10.66
2023-04-18T20:09:57.019Z,10.80
2023-04-18T20:12:18.583Z,10.64
2023-04-18T20:14:40.046Z,10.56
2023-04-18T20:17:01.502Z,10.79
2023-04-18T20:19:26.853Z,10.84
2023-04-18T20:21:48.370Z,11.04
2023-04-18T20:24:09.863Z,11.06
2023-04-18T20:26:31.372Z,11.11
2023-04-18T20:28:52.854Z,11.08
2023-04-18T20:31:14.322Z,11.06
2023-04-18T20:33:36.543Z,11.03
2023-04-18T20:35:58.812Z,11.13
2023-04-18T20:38:25.989Z,11.18
2023-04-18T20:40:48.941Z,11.09
2023-04-18T20:43:10.752Z,11.02
2023-04-18T20:45:34.740Z,11.08
2023-04-18T20:47:56.847Z,10.87
2023-04-18T20:50:20.401Z,10.84
2023-04-18T20:52:43.001Z,10.92
2023-04-18T20:55:04.713Z,11.13
2023-04-18T20:57:26.273Z,10.94
2023-04-18T20:59:48.352Z,10.92
2023-04-18T21:02:10.011Z,10.74
2023-04-18T21:04:31.707Z,10.69
2023-04-18T21:06:53.287Z,10.82
2023-04-18T21:09:15.100Z,11.02
2023-04-18T21:11:36.730Z,10.90
2023-04-18T21:13:58.204Z,10.88
2023-04-18T21:16:19.879Z,11.00
2023-04-18T21:18:41.328Z,11.10
2023-04-18T21:21:02.914Z,10.86
2023-04-18T21:23:24.593Z,10.98
2023-04-18T21:25:46.182Z,10.87
2023-04-18T21:28:08.074Z,10.69
2023-04-18T21:30:29.668Z,10.59
2023-04-18T21:32:51.581Z,10.45
2023-04-18T21:35:13.378Z,10.47
2023-04-18T21:37:34.900Z,10.45
2023-04-18T21:39:56.381Z,10.57
2023-04-18T21:42:17.810Z,10.64
2023-04-18T21:44:39.246Z,10.53
2023-04-18T21:47:00.765Z,10.54
2023-04-18T21:49:22.322Z,10.53
2023-04-18T21:51:44.834Z,10.72
2023-04-18T21:54:07.717Z,10.70
2023-04-18T21:56:29.171Z,10.80
2023-04-18T21:58:50.639Z,10.71
2023-04-18T22:01:12.453Z,10.84
2023-04-18T22:03:34.575Z,10.84
2023-04-18T22:05:56.664Z,10.80
2023-04-18T22:08:19.226Z,10.75
2023-04-18T22:10:40.884Z,10.88
2023-04-18T22:13:05.446Z,10.78
2023-04-18T22:15:27.216Z,10.92
2023-04-18T22:17:50.361Z,10.93
2023-04-18T22:20:12.984Z,10.82
2023-04-18T22:22:34.435Z,10.81
2023-04-18T22:24:55.883Z,11.08
2023-04-18T22:27:17.318Z,11.08
2023-04-18T22:29:38.758Z,11.04
2023-04-18T22:32:00.208Z,10.86
2023-04-18T22:34:21.666Z,10.76
2023-04-18T22:36:45.458Z,10.94
2023-04-18T22:39:07.397Z,10.90
2023-04-18T22:41:28.842Z,10.92
2023-04-18T22:43:50.464Z,11.12
2023-04-18T22:46:11.958Z,11.08
2023-04-18T22:48:35.246Z,11.20
2023-04-18T22:50:56.760Z,11.22
2023-04-18T22:53:18.328Z,11.30
2023-04-18T22:55:43.937Z,11.36
2023-04-18T22:58:05.448Z,11.38
2023-04-18T23:00:26.900Z,11.39
2023-04-18T23:02:48.446Z,11.47
2023-04-18T23:05:10.905Z,11.33
2023-04-18T23:07:32.376Z,11.23
2023-04-18T23:09:53.943Z,11.38
2023-04-18T23:12:15.655Z,11.39
2023-04-18T23:14:37.237Z,11.16
2023-04-18T23:16:58.675Z,11.18
2023-04-18T23:19:20.188Z,11.07
2023-04-18T23:21:42.126Z,11.09
2023-04-18T23:24:03.720Z,10.98
2023-04-18T23:26:25.494Z,11.02
2023-04-18T23:28:47.011Z,11.04
2023-04-18T23:31:08.862Z,11.13
2023-04-18T23:33:30.357Z,11.14
2023-04-18T23:35:51.785Z,11.02
2023-04-18T23:38:13.330Z,11.11
2023-04-18T23:40:35.477Z,11.00
2023-04-18T23:42:57.172Z,10.95
2023-04-18T23:45:18.688Z,11.01
2023-04-18T23:47:40.307Z,10.84
2023-04-18T23:50:02.064Z,10.85
2023-04-18T23:52:23.592Z,10.86
2023-04-18T23:54:45.163Z,11.01
2023-04-18T23:57:06.603Z,10.90
2023-04-18T23:59:28.055Z,11.00
